Time;durP1;ratioP1;P1;durP2;ratioP2;P2;SDS_P1;SDS_P2;PMS_P1;PMS_P2;Temp;Humidity;BMP_temperature;BMP_pressure;BME280_temperature;BME280_humidity;BME280_pressure;Samples;Min_cycle;Max_cycle;Signal;HPM_P1;HPM_P2
2023/12/16 00:01:05;;;;;;;12.02;9.93;;;;;;;3.76;78.89;101102.69;5088948;28;20041;-69
2023/12/16 00:03:31;;;;;;;10.68;8.85;;;;;;;3.74;78.73;101115.81;5088610;28;20297;-70
2023/12/16 00:05:59;;;;;;;10.68;9.50;;;;;;;3.71;78.95;101107.06;5088804;28;20254;-69
2023/12/16 00:08:25;;;;;;;10.55;8.70;;;;;;;3.73;78.84;101114.06;5088750;28;20040;-69
2023/12/16 00:10:52;;;;;;;10.25;7.90;;;;;;;3.74;78.84;101126.28;5088530;28;20058;-70
2023/12/16 00:13:19;;;;;;;10.10;8.30;;;;;;;3.75;78.64;101120.16;5088221;28;20049;-70
2023/12/16 00:15:46;;;;;;;10.27;9.18;;;;;;;3.76;78.35;101121.03;5087887;28;20044;-70
2023/12/16 00:18:12;;;;;;;8.88;7.85;;;;;;;3.77;78.31;101128.91;5088363;28;20067;-69
2023/12/16 00:20:39;;;;;;;10.52;8.65;;;;;;;3.59;78.11;101096.56;5088865;28;20044;-70
2023/12/16 00:23:08;;;;;;;9.32;7.82;;;;;;;3.77;78.13;101110.56;5088314;28;20090;-69
2023/12/16 00:25:35;;;;;;;9.45;7.57;;;;;;;3.74;78.19;101113.19;5088489;28;20288;-69
2023/12/16 00:28:02;;;;;;;10.25;8.77;;;;;;;3.73;78.30;101106.19;5088740;28;20098;-69
2023/12/16 00:30:28;;;;;;;13.48;9.25;;;;;;;3.74;78.03;101100.06;5088674;28;20048;-69
2023/12/16 00:32:55;;;;;;;10.32;8.70;;;;;;;3.73;78.38;101118.41;5088492;28;20040;-69
2023/12/16 00:35:22;;;;;;;9.30;7.85;;;;;;;3.61;77.98;101081.69;5088551;28;20052;-69
2023/12/16 00:37:48;;;;;;;12.80;9.20;;;;;;;3.70;78.29;101115.78;5088592;28;20040;-70
2023/12/16 00:40:17;;;;;;;10.02;8.38;;;;;;;3.70;78.39;101110.56;5088251;28;20186;-69
2023/12/16 00:42:43;;;;;;;9.77;8.23;;;;;;;3.73;78.29;101121.03;5088500;28;20045;-69
2023/12/16 00:45:10;;;;;;;12.32;9.43;;;;;;;3.71;78.37;101128.91;5088164;28;20040;-69
2023/12/16 00:47:37;;;;;;;13.57;9.55;;;;;;;3.72;78.44;101132.41;5087874;28;20358;-69
2023/12/16 00:50:05;;;;;;;12.55;9.43;;;;;;;3.75;78.10;101132.41;5087839;28;20060;-69
2023/12/16 00:52:31;;;;;;;10.50;9.10;;;;;;;3.74;78.40;101120.16;5088032;28;20050;-69
2023/12/16 00:54:58;;;;;;;10.95;9.75;;;;;;;3.72;78.01;101130.66;5087902;28;20086;-69
2023/12/16 00:57:26;;;;;;;11.13;9.90;;;;;;;3.76;77.98;101134.16;5087502;28;20056;-69
2023/12/16 00:59:53;;;;;;;12.18;8.15;;;;;;;3.56;77.97;101112.28;5087617;28;20243;-69
2023/12/16 01:02:20;;;;;;;10.55;8.73;;;;;;;3.52;78.10;101100.91;5087536;28;20106;-69
2023/12/16 01:04:46;;;;;;;12.10;9.23;;;;;;;3.72;78.06;101135.03;5087840;28;20048;-69
2023/12/16 01:07:13;;;;;;;10.25;8.18;;;;;;;3.33;78.03;101060.69;5086619;28;20082;-69
2023/12/16 01:09:39;;;;;;;10.48;7.95;;;;;;;3.71;78.20;101133.28;5086101;28;20067;-69
2023/12/16 01:12:07;;;;;;;13.23;9.45;;;;;;;3.69;78.10;101138.53;5087316;28;20049;-69
2023/12/16 01:14:35;;;;;;;12.13;9.50;;;;;;;3.70;77.99;101131.53;5087323;28;20086;-69
2023/12/16 01:17:00;;;;;;;11.10;8.77;;;;;;;3.70;77.98;101128.91;5087260;28;20090;-69
2023/12/16 01:19:27;;;;;;;11.20;8.85;;;;;;;3.65;78.18;101146.38;5087523;28;20211;-69
2023/12/16 01:21:54;;;;;;;10.88;8.65;;;;;;;3.64;78.25;101145.50;5087467;28;20074;-71
2023/12/16 01:24:21;;;;;;;11.45;9.23;;;;;;;3.62;78.14;101146.38;5087380;28;20041;-70
2023/12/16 01:26:47;;;;;;;11.43;9.70;;;;;;;3.51;78.22;101130.63;5087066;28;20048;-70
2023/12/16 01:29:14;;;;;;;13.05;10.82;;;;;;;3.62;78.26;101155.13;5087239;28;20093;-69
2023/12/16 01:31:42;;;;;;;11.98;9.65;;;;;;;3.42;78.52;101141.97;5087009;28;20097;-69
2023/12/16 01:34:09;;;;;;;13.13;10.25;;;;;;;3.55;78.69;101174.34;5086820;28;20044;-69
2023/12/16 01:36:35;;;;;;;12.55;9.60;;;;;;;3.57;78.83;101179.56;5086873;28;20105;-68
2023/12/16 01:39:03;;;;;;;10.90;9.05;;;;;;;3.58;78.79;101160.34;5087148;28;20040;-68
2023/12/16 01:41:29;;;;;;;11.63;8.85;;;;;;;3.62;78.89;101172.59;5087081;28;20045;-70
2023/12/16 01:43:56;;;;;;;13.15;9.13;;;;;;;3.60;78.57;101169.97;5087059;28;20048;-69
2023/12/16 01:46:23;;;;;;;12.32;9.98;;;;;;;3.42;78.67;101149.84;5086733;28;20041;-69
2023/12/16 01:48:51;;;;;;;12.68;9.68;;;;;;;3.62;78.59;101170.84;5087006;28;20051;-69
2023/12/16 01:51:18;;;;;;;12.65;9.90;;;;;;;3.61;78.45;101169.09;5086897;28;20118;-69
2023/12/16 01:53:46;;;;;;;14.77;10.20;;;;;;;3.58;78.79;101166.47;5086808;28;20082;-69
2023/12/16 01:56:13;;;;;;;11.90;10.57;;;;;;;3.58;78.85;101174.34;5086299;28;20082;-69
2023/12/16 01:58:40;;;;;;;13.20;10.00;;;;;;;3.56;78.82;101170.84;5085706;28;20078;-69
2023/12/16 02:01:06;;;;;;;13.63;10.55;;;;;;;3.44;78.65;101137.59;5086749;28;20126;-69
2023/12/16 02:03:33;;;;;;;12.32;9.85;;;;;;;3.51;79.00;101168.22;5086692;28;20048;-69
2023/12/16 02:06:02;;;;;;;13.02;10.15;;;;;;;2.97;78.83;101060.63;5086686;28;20071;-69
2023/12/16 02:08:28;;;;;;;10.57;9.30;;;;;;;3.58;78.64;101171.72;5086882;28;20332;-69
2023/12/16 02:10:55;;;;;;;11.68;9.43;;;;;;;3.55;78.68;101169.09;5086190;28;20169;-69
2023/12/16 02:13:23;;;;;;;11.10;9.02;;;;;;;3.53;78.82;101176.06;5085931;28;20125;-70
2023/12/16 02:15:50;;;;;;;11.75;9.70;;;;;;;3.51;78.73;101172.56;5086691;28;20064;-69
2023/12/16 02:18:17;;;;;;;11.45;9.48;;;;;;;3.53;78.70;101176.94;5086554;28;20226;-70
2023/12/16 02:20:46;;;;;;;10.82;9.70;;;;;;;3.47;78.93;101176.06;5086310;28;20048;-69
2023/12/16 02:23:16;;;;;;;12.13;9.65;;;;;;;3.47;79.16;101178.69;5085952;28;20044;-70
2023/12/16 02:25:42;;;;;;;12.27;9.43;;;;;;;3.54;78.89;101175.19;5086286;28;20055;-69
2023/12/16 02:28:09;;;;;;;12.60;9.30;;;;;;;3.54;78.77;101180.44;5086750;28;20115;-68
2023/12/16 02:30:36;;;;;;;13.18;9.23;;;;;;;3.51;78.91;101175.19;5085900;28;20359;-69
2023/12/16 02:33:03;;;;;;;11.45;10.05;;;;;;;3.35;78.84;101150.69;5086152;28;20040;-69
2023/12/16 02:35:30;;;;;;;12.75;8.77;;;;;;;3.52;78.73;101185.69;5085794;28;20119;-69
2023/12/16 02:37:56;;;;;;;11.82;9.98;;;;;;;3.45;79.04;101191.78;5086072;28;20044;-69
2023/12/16 02:40:24;;;;;;;11.40;9.13;;;;;;;3.51;78.84;101194.41;5085744;28;20188;-69
2023/12/16 02:42:51;;;;;;;10.85;9.40;;;;;;;3.49;79.00;101198.78;5084885;28;20097;-70
2023/12/16 02:45:18;;;;;;;12.15;10.07;;;;;;;3.43;79.34;101203.13;5085635;28;20040;-68
2023/12/16 02:47:45;;;;;;;10.77;9.30;;;;;;;3.33;79.08;101175.16;5084908;28;20170;-69
2023/12/16 02:50:12;;;;;;;11.20;9.40;;;;;;;3.52;78.85;101200.53;5085890;28;20068;-69
2023/12/16 02:52:39;;;;;;;11.40;9.77;;;;;;;3.57;78.70;101201.44;5085874;28;20040;-69
2023/12/16 02:55:06;;;;;;;14.18;10.10;;;;;;;3.59;78.65;101206.69;5085788;28;20185;-69
2023/12/16 02:57:34;;;;;;;12.02;9.32;;;;;;;3.59;78.67;101218.03;5084727;28;20327;-68
2023/12/16 03:00:01;;;;;;;11.48;9.52;;;;;;;3.58;78.83;101216.28;5085486;28;20364;-69
2023/12/16 03:02:28;;;;;;;11.57;9.55;;;;;;;3.56;78.69;101214.53;5085778;28;20171;-69
2023/12/16 03:04:54;;;;;;;11.10;9.18;;;;;;;3.58;78.88;101213.66;5085748;28;20059;-69
2023/12/16 03:07:21;;;;;;;11.52;9.70;;;;;;;3.56;78.89;101222.41;5086001;28;20078;-69
2023/12/16 03:09:47;;;;;;;11.40;9.77;;;;;;;3.57;78.83;101216.28;5086021;28;20066;-69
2023/12/16 03:12:15;;;;;;;11.90;9.10;;;;;;;3.60;78.80;101211.03;5085417;28;20060;-69
2023/12/16 03:14:43;;;;;;;11.43;9.10;;;;;;;3.58;78.88;101221.53;5085606;28;20055;-69
2023/12/16 03:17:10;;;;;;;12.40;9.48;;;;;;;3.55;79.10;101224.13;5085448;28;20045;-69
2023/12/16 03:19:36;;;;;;;11.18;9.27;;;;;;;3.56;78.95;101236.38;5085619;28;20090;-69
2023/12/16 03:22:03;;;;;;;13.77;8.55;;;;;;;3.52;79.11;101245.09;5085631;28;20040;-69
2023/12/16 03:24:30;;;;;;;10.77;8.93;;;;;;;3.50;79.31;101242.47;5085300;28;20082;-69
2023/12/16 03:26:56;;;;;;;12.55;8.52;;;;;;;3.58;79.05;101241.63;5085246;28;20102;-69
2023/12/16 03:29:23;;;;;;;13.48;10.43;;;;;;;3.52;79.20;101242.47;5085802;28;20044;-69
2023/12/16 03:31:51;;;;;;;12.60;9.77;;;;;;;3.55;78.99;101245.13;5084519;28;20292;-69
2023/12/16 03:34:18;;;;;;;10.82;8.93;;;;;;;2.85;79.19;101132.16;5087646;28;20116;-68
2023/12/16 03:36:44;;;;;;;10.80;9.02;;;;;;;3.54;79.10;101253.84;5089529;28;20037;-69
2023/12/16 03:39:11;;;;;;;13.77;9.43;;;;;;;3.49;79.36;101255.59;5089191;28;20051;-69
2023/12/16 03:41:38;;;;;;;11.25;9.25;;;;;;;3.50;79.45;101250.34;5089440;28;20317;-70
2023/12/16 03:44:05;;;;;;;10.93;9.05;;;;;;;3.48;79.28;101259.94;5089401;28;20056;-70
2023/12/16 03:46:32;;;;;;;11.20;9.40;;;;;;;3.48;79.51;101261.69;5089390;28;20292;-69
2023/12/16 03:49:00;;;;;;;11.80;10.15;;;;;;;3.45;79.57;101256.44;5089318;28;20052;-70
2023/12/16 03:51:26;;;;;;;11.85;9.27;;;;;;;3.45;79.53;101262.56;5089275;28;20052;-69
2023/12/16 03:53:53;;;;;;;12.40;10.25;;;;;;;3.12;79.76;101191.66;5089105;28;20044;-70
2023/12/16 03:56:20;;;;;;;10.48;8.73;;;;;;;3.44;79.91;101250.31;5088892;28;20105;-69
2023/12/16 03:58:46;;;;;;;10.40;8.27;;;;;;;3.46;79.75;101251.19;5089027;28;20296;-69
2023/12/16 04:01:13;;;;;;;11.15;9.20;;;;;;;3.47;79.79;101241.59;5089360;28;20090;-69
2023/12/16 04:03:40;;;;;;;11.60;9.50;;;;;;;3.50;79.55;101242.47;5088756;28;20126;-70
2023/12/16 04:06:12;;;;;;;9.90;8.27;;;;;;;3.53;79.42;101244.22;5088944;28;20083;-69
2023/12/16 04:08:39;;;;;;;11.55;9.25;;;;;;;3.56;79.36;101244.25;5088903;28;20044;-70
2023/12/16 04:11:06;;;;;;;10.77;8.73;;;;;;;3.51;79.56;101259.97;5088871;28;20296;-70
2023/12/16 04:13:34;;;;;;;9.48;7.35;;;;;;;3.53;79.60;101242.50;5087495;28;20052;-69
2023/12/16 04:16:01;;;;;;;12.02;8.82;;;;;;;3.55;79.64;101252.97;5088982;28;20059;-70
2023/12/16 04:18:28;;;;;;;9.90;8.48;;;;;;;3.57;79.54;101255.59;5088430;28;20053;-70
2023/12/16 04:20:55;;;;;;;11.65;8.93;;;;;;;3.52;79.57;101245.97;5088679;28;20104;-69
2023/12/16 04:23:23;;;;;;;12.55;9.40;;;;;;;3.37;79.67;101218.84;5088599;28;20040;-69
2023/12/16 04:25:49;;;;;;;11.18;8.48;;;;;;;3.39;79.89;101224.97;5088556;28;20078;-70
2023/12/16 04:28:16;;;;;;;10.40;8.60;;;;;;;3.34;79.84;101224.94;5088490;28;20193;-69
2023/12/16 04:30:43;;;;;;;11.57;8.98;;;;;;;3.50;79.89;101257.34;5088489;28;20044;-70
2023/12/16 04:33:09;;;;;;;10.93;9.70;;;;;;;3.51;79.74;101259.09;5088421;28;20096;-70
2023/12/16 04:35:36;;;;;;;11.80;8.68;;;;;;;3.49;79.77;101259.06;5088321;28;20044;-70
2023/12/16 04:38:02;;;;;;;10.85;9.07;;;;;;;3.48;79.79;101265.19;5088331;28;20246;-69
2023/12/16 04:40:30;;;;;;;13.77;10.23;;;;;;;3.49;79.78;101263.44;5088222;28;20053;-70
2023/12/16 04:42:57;;;;;;;11.35;9.10;;;;;;;3.53;79.56;101267.84;5088001;28;20051;-70
2023/12/16 04:45:24;;;;;;;12.40;10.43;;;;;;;3.50;79.69;101265.19;5087723;28;20041;-70
2023/12/16 04:47:50;;;;;;;11.00;8.80;;;;;;;3.52;79.53;101266.97;5088225;28;20052;-70
2023/12/16 04:50:17;;;;;;;12.07;9.32;;;;;;;3.55;79.67;101268.72;5088396;28;20063;-70
2023/12/16 04:52:44;;;;;;;13.30;9.48;;;;;;;3.56;79.56;101278.31;5086966;28;20204;-70
2023/12/16 04:55:11;;;;;;;12.93;9.85;;;;;;;3.00;79.53;101226.53;5087666;28;20316;-70
2023/12/16 04:57:39;;;;;;;12.93;11.35;;;;;;;3.58;79.34;101288.81;5088332;28;20037;-70
2023/12/16 05:00:08;;;;;;;11.30;10.18;;;;;;;3.58;79.46;101286.19;5088031;28;20089;-70
2023/12/16 05:02:34;;;;;;;11.48;8.68;;;;;;;3.54;79.64;101290.56;5087956;28;20075;-70
2023/12/16 05:05:01;;;;;;;13.70;9.57;;;;;;;3.54;79.57;101293.19;5087816;28;20037;-70
2023/12/16 05:07:27;;;;;;;11.73;8.65;;;;;;;3.52;79.81;101295.78;5087809;28;20045;-70
2023/12/16 05:09:54;;;;;;;13.30;9.95;;;;;;;3.51;79.86;101303.66;5088311;28;20236;-70
2023/12/16 05:12:21;;;;;;;11.35;9.00;;;;;;;3.50;79.86;101305.41;5087407;28;20065;-70
2023/12/16 05:14:49;;;;;;;10.48;9.30;;;;;;;3.54;79.79;101306.28;5087569;28;20044;-70
2023/12/16 05:17:16;;;;;;;13.63;9.25;;;;;;;3.56;79.75;101309.78;5087643;28;20044;-69
2023/12/16 05:19:42;;;;;;;12.77;9.98;;;;;;;3.60;79.64;101310.69;5087582;28;20066;-69
2023/12/16 05:22:09;;;;;;;11.88;9.82;;;;;;;3.58;79.65;101309.81;5087485;28;20052;-70
2023/12/16 05:24:35;;;;;;;12.32;9.65;;;;;;;3.57;nan;101308.03;5087517;28;20040;-70
2023/12/16 05:27:02;;;;;;;11.73;10.25;;;;;;;3.60;79.76;101315.94;5087756;28;20276;-70
2023/12/16 05:29:28;;;;;;;10.90;9.77;;;;;;;3.61;79.58;101304.56;5087391;28;20090;-70
2023/12/16 05:31:56;;;;;;;14.23;10.35;;;;;;;3.64;79.72;101307.19;5087056;28;20041;-70
2023/12/16 05:34:22;;;;;;;12.02;10.38;;;;;;;3.63;79.55;101315.94;5087238;28;20044;-70
2023/12/16 05:36:51;;;;;;;11.13;8.70;;;;;;;3.60;nan;101316.81;5087484;28;20199;-70
2023/12/16 05:39:17;;;;;;;11.32;9.55;;;;;;;3.60;79.77;101318.53;5087158;28;20056;-70
2023/12/16 05:41:45;;;;;;;12.27;9.20;;;;;;;3.62;79.73;101322.94;5087132;28;20086;-69
2023/12/16 05:44:11;;;;;;;12.65;9.73;;;;;;;3.65;79.64;101327.31;5087383;28;20048;-69
2023/12/16 05:46:38;;;;;;;12.77;10.35;;;;;;;3.66;79.44;101334.31;5087094;28;20170;-70
2023/12/16 05:49:06;;;;;;;12.85;9.82;;;;;;;3.66;79.57;101329.06;5086988;28;20086;-69
2023/12/16 05:51:39;;;;;;;10.77;9.38;;;;;;;3.64;79.58;101328.19;5086801;28;20075;-70
2023/12/16 05:54:05;;;;;;;13.43;10.20;;;;;;;3.64;79.54;101320.31;5086884;28;20044;-69
2023/12/16 05:56:32;;;;;;;12.05;9.45;;;;;;;3.65;79.58;101328.19;5084821;28;20041;-69
2023/12/16 05:58:58;;;;;;;12.25;9.45;;;;;;;3.68;79.46;101328.19;5086718;28;20055;-69
2023/12/16 06:01:25;;;;;;;12.80;9.32;;;;;;;3.68;79.48;101333.44;5086462;28;20045;-69
2023/12/16 06:03:52;;;;;;;11.32;10.02;;;;;;;3.66;79.63;101334.31;5086926;28;20048;-69
2023/12/16 06:06:20;;;;;;;11.63;10.10;;;;;;;3.50;79.43;101304.53;5086620;28;20037;-69
2023/12/16 06:08:46;;;;;;;10.27;9.10;;;;;;;3.66;79.49;101337.81;5086622;28;20048;-69
2023/12/16 06:11:13;;;;;;;10.65;9.25;;;;;;;3.53;79.50;101315.91;5087047;28;20173;-69
2023/12/16 06:13:41;;;;;;;11.38;9.40;;;;;;;3.66;79.48;101344.78;5086060;28;20090;-69
2023/12/16 06:16:08;;;;;;;10.98;9.55;;;;;;;3.67;79.42;101350.03;5086656;28;20277;-69
2023/12/16 06:18:35;;;;;;;14.05;9.80;;;;;;;3.67;79.38;101359.66;5086059;28;20300;-69
2023/12/16 06:21:01;;;;;;;11.77;9.98;;;;;;;3.69;79.28;101363.16;5086500;28;20128;-69
2023/12/16 06:23:30;;;;;;;11.77;8.95;;;;;;;3.69;79.30;101360.53;5085898;28;20244;-69
2023/12/16 06:25:57;;;;;;;10.02;8.75;;;;;;;3.68;79.23;101364.91;5086212;28;20048;-69
2023/12/16 06:28:24;;;;;;;15.63;11.23;;;;;;;3.68;79.34;101364.03;5086180;28;20055;-69
2023/12/16 06:30:50;;;;;;;11.85;10.07;;;;;;;3.70;79.13;101357.94;5086240;28;20102;-69
2023/12/16 06:33:17;;;;;;;10.20;9.00;;;;;;;3.70;79.35;101364.91;5086217;28;20090;-70
2023/12/16 06:35:43;;;;;;;16.33;10.25;;;;;;;3.68;79.24;101361.41;5086366;28;20090;-69
2023/12/16 06:38:10;;;;;;;11.07;9.45;;;;;;;3.69;79.23;101373.66;5086071;28;20044;-69
2023/12/16 06:40:38;;;;;;;11.23;9.75;;;;;;;3.71;79.22;101374.53;5086056;28;20048;-69
2023/12/16 06:43:05;;;;;;;11.63;10.25;;;;;;;3.70;79.23;101373.66;5086046;28;20044;-69
2023/12/16 06:45:32;;;;;;;12.77;9.75;;;;;;;3.68;79.15;101385.88;5086028;28;20041;-69
2023/12/16 06:47:59;;;;;;;11.07;9.57;;;;;;;3.70;79.17;101373.66;5085990;28;20253;-69
2023/12/16 06:50:26;;;;;;;10.63;8.80;;;;;;;3.70;79.17;101370.16;5085928;28;20339;-70
2023/12/16 06:52:52;;;;;;;12.48;10.80;;;;;;;3.71;79.26;101382.41;5085929;28;20046;-69
2023/12/16 06:55:19;;;;;;;13.18;9.88;;;;;;;3.71;79.05;101375.41;5085819;28;20066;-70
2023/12/16 06:57:47;;;;;;;10.48;8.68;;;;;;;3.73;79.11;101375.44;5085818;28;20044;-70
2023/12/16 07:00:14;;;;;;;12.75;10.75;;;;;;;3.54;78.60;101350.84;5085838;28;20041;-70
2023/12/16 07:02:42;;;;;;;12.15;9.43;;;;;;;3.72;78.90;101377.16;5085518;28;20074;-69
2023/12/16 07:05:10;;;;;;;14.00;10.02;;;;;;;3.72;78.82;101371.03;5085428;28;20240;-69
2023/12/16 07:07:36;;;;;;;11.30;9.18;;;;;;;3.74;78.77;101382.41;5085670;28;20111;-69
2023/12/16 07:10:05;;;;;;;12.15;10.57;;;;;;;3.73;78.67;101368.44;5085523;28;20102;-70
2023/12/16 07:12:31;;;;;;;12.02;9.43;;;;;;;3.75;78.79;101369.31;5085107;28;20300;-70
2023/12/16 07:14:59;;;;;;;11.50;10.10;;;;;;;3.76;78.69;101364.94;5085628;28;20040;-70
2023/12/16 07:17:26;;;;;;;12.15;9.52;;;;;;;3.76;78.72;101367.56;5085476;28;20208;-69
2023/12/16 07:19:53;;;;;;;10.45;8.75;;;;;;;3.76;78.98;101367.56;5085271;28;20319;-70
2023/12/16 07:22:19;;;;;;;12.15;9.80;;;;;;;3.77;78.72;101374.56;5085635;28;20045;-70
2023/12/16 07:24:46;;;;;;;12.55;9.48;;;;;;;3.78;78.72;101377.19;5085584;28;20216;-69
2023/12/16 07:27:13;;;;;;;12.43;9.60;;;;;;;3.77;78.56;101385.06;5085544;28;20043;-70
2023/12/16 07:29:39;;;;;;;11.65;9.52;;;;;;;3.81;78.74;101387.69;5085097;28;20284;-70
2023/12/16 07:32:08;;;;;;;11.85;9.45;;;;;;;3.82;78.50;101399.06;5085277;28;20174;-70
2023/12/16 07:34:35;;;;;;;11.73;9.30;;;;;;;3.82;78.51;101392.06;5085203;28;20228;-70
2023/12/16 07:37:01;;;;;;;10.18;8.63;;;;;;;3.85;78.35;101404.34;5085099;28;20175;-69
2023/12/16 07:39:28;;;;;;;10.98;9.40;;;;;;;3.85;78.30;101402.59;5085414;28;20053;-69
2023/12/16 07:41:54;;;;;;;11.82;9.18;;;;;;;3.87;78.39;101399.97;5085383;28;20036;-70
2023/12/16 07:44:21;;;;;;;11.68;8.88;;;;;;;3.88;78.35;101403.47;5085538;28;20197;-70
2023/12/16 07:46:48;;;;;;;12.23;8.85;;;;;;;3.90;78.20;101401.72;5084435;28;20044;-70
2023/12/16 07:49:19;;;;;;;11.93;8.95;;;;;;;3.90;78.26;101393.84;5085303;28;20044;-70
2023/12/16 07:51:45;;;;;;;11.43;9.10;;;;;;;3.93;78.02;101391.25;5085305;28;20205;-69
2023/12/16 07:54:13;;;;;;;11.75;9.15;;;;;;;3.92;77.96;101395.63;5085183;28;20098;-69
2023/12/16 07:56:39;;;;;;;10.68;8.35;;;;;;;3.94;77.73;101383.38;5085423;28;20041;-70
2023/12/16 07:59:06;;;;;;;10.23;8.18;;;;;;;3.89;77.51;101381.63;5084895;28;20193;-70
2023/12/16 08:01:34;;;;;;;10.38;8.05;;;;;;;3.95;77.61;101379.88;5084932;28;20053;-70
2023/12/16 08:04:01;;;;;;;10.00;7.85;;;;;;;3.98;77.13;101392.16;5085376;28;20044;-69
2023/12/16 08:06:29;;;;;;;11.27;9.38;;;;;;;3.96;76.94;101391.25;5084889;28;20041;-70
2023/12/16 08:08:55;;;;;;;10.50;8.18;;;;;;;3.96;76.99;101394.75;5084870;28;20044;-70
2023/12/16 08:11:22;;;;;;;9.23;7.93;;;;;;;4.00;76.56;101391.28;5084599;28;20045;-70
2023/12/16 08:13:49;;;;;;;8.55;6.93;;;;;;;4.00;76.54;101400.91;5085216;28;20235;-70
2023/12/16 08:16:15;;;;;;;9.70;7.43;;;;;;;3.85;76.67;101370.22;5084641;28;20045;-70
2023/12/16 08:18:42;;;;;;;7.93;7.00;;;;;;;4.02;76.74;101402.66;5085012;28;20055;-70
2023/12/16 08:21:09;;;;;;;11.77;8.73;;;;;;;4.06;76.44;101399.19;5087671;28;20086;-70
2023/12/16 08:23:37;;;;;;;9.13;7.07;;;;;;;4.08;76.38;101405.31;5089127;28;20063;-69
2023/12/16 08:26:09;;;;;;;10.95;8.65;;;;;;;3.73;76.31;101333.47;5088667;28;20032;-70
2023/12/16 08:28:37;;;;;;;9.48;7.38;;;;;;;4.10;76.15;101414.06;5088519;28;20301;-70
2023/12/16 08:31:04;;;;;;;9.85;8.38;;;;;;;4.14;75.97;101417.56;5088176;28;20085;-70
2023/12/16 08:33:31;;;;;;;10.18;7.45;;;;;;;4.09;75.49;101424.56;5088156;28;20049;-69
2023/12/16 08:35:58;;;;;;;11.25;7.45;;;;;;;4.13;75.97;101419.31;5088003;28;20048;-69
2023/12/16 08:38:24;;;;;;;7.70;6.75;;;;;;;4.14;75.95;101423.69;5088227;28;20051;-69
2023/12/16 08:40:55;;;;;;;8.82;6.60;;;;;;;4.22;76.07;101430.75;5088585;28;20098;-69
2023/12/16 08:43:22;;;;;;;9.30;6.97;;;;;;;4.18;75.75;101432.47;5088554;28;20056;-69
2023/12/16 08:45:48;;;;;;;9.25;6.38;;;;;;;4.20;75.81;101427.22;5087971;28;20098;-69
2023/12/16 08:48:15;;;;;;;9.88;7.07;;;;;;;4.16;75.57;101423.72;5088419;28;20105;-69
2023/12/16 08:50:42;;;;;;;9.82;7.57;;;;;;;4.22;75.37;101436.88;5088166;28;20082;-69
2023/12/16 08:53:10;;;;;;;8.20;7.40;;;;;;;4.29;75.36;101440.41;5087966;28;20044;-70
2023/12/16 08:55:37;;;;;;;10.65;7.80;;;;;;;4.25;75.25;101436.91;5087954;28;20300;-69
2023/12/16 08:58:05;;;;;;;8.73;6.60;;;;;;;4.33;75.30;101455.31;5087695;28;20044;-70
2023/12/16 09:00:31;;;;;;;10.18;6.63;;;;;;;4.33;75.03;101445.69;5087225;28;20040;-70
2023/12/16 09:02:58;;;;;;;8.38;6.50;;;;;;;3.72;74.83;101355.31;5087543;28;20293;-69
2023/12/16 09:05:26;;;;;;;8.15;6.55;;;;;;;4.38;75.06;101466.69;5087916;28;20060;-70
2023/12/16 09:07:53;;;;;;;9.88;6.95;;;;;;;4.43;74.55;101457.97;5088034;28;20055;-70
2023/12/16 09:10:20;;;;;;;8.05;6.70;;;;;;;4.43;74.59;101467.59;5087140;28;20040;-69
2023/12/16 09:12:47;;;;;;;8.82;7.07;;;;;;;4.45;73.67;101465.84;5087432;28;20095;-70
2023/12/16 09:15:16;;;;;;;8.60;6.75;;;;;;;4.52;73.91;101469.38;5087715;28;20107;-69
2023/12/16 09:17:43;;;;;;;8.82;7.35;;;;;;;4.52;74.19;101477.25;5097634;28;20040;-69
2023/12/16 09:20:11;;;;;;;9.82;7.43;;;;;;;4.49;73.92;101476.38;5108112;28;20254;-69
2023/12/16 09:22:37;;;;;;;8.85;6.57;;;;;;;4.47;73.39;101469.34;5107811;28;20044;-69
2023/12/16 09:25:06;;;;;;;9.98;7.22;;;;;;;4.53;73.37;101469.38;5106488;28;20040;-70
2023/12/16 09:27:33;;;;;;;9.30;7.07;;;;;;;4.55;73.58;101474.63;5107934;28;20110;-69
2023/12/16 09:29:59;;;;;;;8.68;6.85;;;;;;;4.37;73.06;101451.81;5107442;28;20036;-69
2023/12/16 09:32:27;;;;;;;7.97;6.25;;;;;;;4.56;73.02;101473.75;5106437;28;20281;-69
2023/12/16 09:34:54;;;;;;;8.48;7.03;;;;;;;4.59;73.25;101479.91;5107665;28;20051;-69
2023/12/16 09:37:21;;;;;;;8.90;6.78;;;;;;;4.03;73.09;101378.19;5107349;28;20069;-69
2023/12/16 09:39:47;;;;;;;9.75;6.60;;;;;;;4.67;73.33;101474.66;5106841;28;20055;-70
2023/12/16 09:42:14;;;;;;;9.13;6.50;;;;;;;4.68;73.16;101468.53;5107257;28;20051;-70
2023/12/16 09:44:42;;;;;;;8.13;7.22;;;;;;;4.72;72.87;101465.03;5107027;28;20107;-69
2023/12/16 09:47:11;;;;;;;8.45;6.30;;;;;;;4.71;72.65;101460.66;5107191;28;20192;-69
2023/12/16 09:49:41;;;;;;;8.93;7.28;;;;;;;4.75;72.42;101458.03;5107364;28;20051;-70
2023/12/16 09:52:07;;;;;;;8.95;6.30;;;;;;;4.78;72.73;101447.53;5107682;28;20220;-69
2023/12/16 09:54:34;;;;;;;8.45;7.05;;;;;;;4.76;71.89;101451.91;5107147;28;20296;-70
2023/12/16 09:57:02;;;;;;;8.88;6.45;;;;;;;4.87;72.05;101461.56;5105818;28;20372;-70
2023/12/16 09:59:31;;;;;;;7.35;5.88;;;;;;;4.84;71.70;101449.31;5107053;28;20064;-69
2023/12/16 10:01:59;;;;;;;8.52;6.45;;;;;;;4.71;71.82;101416.00;5107250;28;20040;-70
2023/12/16 10:04:27;;;;;;;11.63;7.50;;;;;;;4.94;71.34;101445.84;5106890;28;20048;-69
2023/12/16 10:06:55;;;;;;;8.65;6.53;;;;;;;5.03;71.18;101439.72;5106382;28;20044;-69
2023/12/16 10:09:22;;;;;;;8.07;6.68;;;;;;;5.10;70.96;101442.34;5107015;28;20066;-69
2023/12/16 10:11:52;;;;;;;8.48;6.85;;;;;;;5.10;70.41;101437.09;5106441;28;20180;-69
2023/12/16 10:14:18;;;;;;;9.23;7.20;;;;;;;5.25;70.43;101430.09;5106339;28;20079;-69
2023/12/16 10:16:46;;;;;;;10.07;6.18;;;;;;;5.31;70.25;101430.94;5106605;28;20044;-70
2023/12/16 10:19:14;;;;;;;8.20;6.85;;;;;;;5.33;70.03;101434.47;5106343;28;20051;-69
2023/12/16 10:21:41;;;;;;;8.52;6.78;;;;;;;5.44;69.32;101426.56;5106518;28;20105;-69
2023/12/16 10:24:08;;;;;;;14.07;7.38;;;;;;;5.57;69.41;101420.41;5106746;28;20093;-70
2023/12/16 10:26:43;;;;;;;8.93;7.28;;;;;;;5.61;69.24;101422.16;5106294;28;20067;-70
2023/12/16 10:29:11;;;;;;;10.57;6.70;;;;;;;5.59;68.48;101423.03;5106683;28;20040;-70
2023/12/16 10:31:38;;;;;;;13.68;8.15;;;;;;;5.62;68.57;101417.75;5106799;28;20300;-69
2023/12/16 10:34:05;;;;;;;9.50;7.00;;;;;;;5.78;69.39;101406.31;5106450;28;20089;-70
2023/12/16 10:36:32;;;;;;;8.60;7.20;;;;;;;5.90;68.18;101411.53;5105991;28;20040;-69
2023/12/16 10:38:59;;;;;;;8.55;6.90;;;;;;;5.97;67.98;101402.75;5106554;28;20070;-69
2023/12/16 10:41:27;;;;;;;11.10;6.80;;;;;;;6.09;67.76;101405.31;5105148;28;20251;-70
2023/12/16 10:43:54;;;;;;;10.05;7.32;;;;;;;6.39;67.86;101403.41;5105469;28;20040;-69
2023/12/16 10:46:22;;;;;;;9.27;6.70;;;;;;;6.48;65.93;101406.00;5105797;28;20094;-69
2023/12/16 10:48:51;;;;;;;9.95;6.75;;;;;;;6.56;65.28;101390.16;5106075;28;20044;-70
2023/12/16 10:51:19;;;;;;;9.43;6.38;;;;;;;6.74;64.77;101388.25;5106063;28;20181;-70
2023/12/16 10:53:53;;;;;;;7.88;6.53;;;;;;;6.91;64.05;101379.38;5105846;28;20052;-70
2023/12/16 10:56:28;;;;;;;9.73;6.60;;;;;;;7.05;63.56;101378.38;5105841;28;20085;-69
2023/12/16 10:59:01;;;;;;;8.50;7.00;;;;;;;7.34;62.69;101377.28;5106070;28;20094;-70
2023/12/16 11:01:30;;;;;;;8.98;6.00;;;;;;;7.35;62.81;101373.75;5105908;28;20055;-69
2023/12/16 11:04:04;;;;;;;6.88;5.78;;;;;;;7.61;62.11;101365.56;5106055;28;20097;-70
2023/12/16 11:06:37;;;;;;;10.47;6.10;;;;;;;7.69;60.13;101351.38;5105631;28;20043;-70
2023/12/16 11:09:06;;;;;;;8.83;6.13;;;;;;;7.70;61.02;101368.09;5105857;28;20044;-70
2023/12/16 11:11:35;;;;;;;8.32;5.25;;;;;;;7.85;59.64;101357.34;5105566;28;20446;-70
2023/12/16 11:14:02;;;;;;;6.20;5.05;;;;;;;7.82;59.33;101344.19;5105571;28;20102;-70
2023/12/16 11:16:42;;;;;;;9.10;5.82;;;;;;;8.06;58.26;101355.31;5105559;28;20047;-69
2023/12/16 11:19:10;;;;;;;7.13;5.30;;;;;;;8.20;58.60;101356.88;5105762;28;20113;-70
2023/12/16 11:21:42;;;;;;;8.60;5.53;;;;;;;8.29;58.86;101354.13;5105414;28;20048;-70
2023/12/16 11:24:09;;;;;;;7.03;4.85;;;;;;;8.31;57.87;101352.31;5105966;28;20044;-70
2023/12/16 11:26:37;;;;;;;7.03;5.38;;;;;;;8.37;57.48;101356.66;5105724;28;20040;-70